createdAt,value
2017-07-01T00:01:32.388Z,3.30
2017-07-01T00:03:59.358Z,3.80
2017-07-01T00:06:26.366Z,4.60
2017-07-01T00:08:53.443Z,3.83
2017-07-01T00:11:20.490Z,3.83
2017-07-01T00:13:47.546Z,4.13
2017-07-01T00:16:14.523Z,4.10
2017-07-01T00:18:42.304Z,4.30
2017-07-01T00:21:09.396Z,4.27
2017-07-01T00:23:36.395Z,4.40
2017-07-01T00:26:03.387Z,4.50
2017-07-01T00:28:30.418Z,3.80
2017-07-01T00:30:57.492Z,4.60
2017-07-01T00:33:24.452Z,4.03
2017-07-01T00:35:51.427Z,4.20
2017-07-01T00:38:18.420Z,4.27
2017-07-01T00:40:45.400Z,4.50
2017-07-01T00:43:13.152Z,3.47
2017-07-01T00:45:40.152Z,3.63
2017-07-01T00:48:07.162Z,3.70
2017-07-01T00:50:34.915Z,4.20
2017-07-01T00:53:02.692Z,3.60
2017-07-01T00:55:30.436Z,3.63
2017-07-01T00:57:57.387Z,3.60
2017-07-01T01:00:25.152Z,4.20
2017-07-01T01:02:52.882Z,3.80
2017-07-01T01:05:19.841Z,3.40
2017-07-01T01:07:47.737Z,4.10
2017-07-01T01:10:15.446Z,4.10
2017-07-01T01:12:42.585Z,4.20
2017-07-01T01:15:09.564Z,3.90
2017-07-01T01:17:36.583Z,4.60
2017-07-01T01:20:03.604Z,4.40
2017-07-01T01:22:31.804Z,4.87
2017-07-01T01:24:58.812Z,4.30
2017-07-01T01:27:26.547Z,4.50
2017-07-01T01:29:56.665Z,5.60
2017-07-01T01:32:25.703Z,5.10
2017-07-01T01:34:52.701Z,5.10
2017-07-01T01:37:19.680Z,5.60
2017-07-01T01:39:47.611Z,5.90
2017-07-01T01:42:14.609Z,6.10
2017-07-01T01:44:41.623Z,5.93
2017-07-01T01:47:09.387Z,6.80
2017-07-01T01:49:37.132Z,6.30
2017-07-01T01:52:04.135Z,5.40
2017-07-01T01:54:31.155Z,5.63
2017-07-01T01:56:58.140Z,5.10
2017-07-01T01:59:25.127Z,6.27
2017-07-01T02:01:52.100Z,5.27
2017-07-01T02:04:19.099Z,6.00
2017-07-01T02:06:46.071Z,5.77
2017-07-01T02:09:13.848Z,6.43
2017-07-01T02:12:09.183Z,5.40
2017-07-01T02:14:36.181Z,6.07
2017-07-01T02:17:09.020Z,7.13
2017-07-01T02:19:36.067Z,6.10
2017-07-01T02:22:17.504Z,6.80
2017-07-01T02:24:57.107Z,7.40
2017-07-01T02:27:24.111Z,7.27
2017-07-01T02:29:51.131Z,6.97
2017-07-01T02:32:18.104Z,6.07
2017-07-01T02:35:01.928Z,7.53
2017-07-01T02:37:29.672Z,7.67
2017-07-01T02:39:56.664Z,7.20
2017-07-01T02:42:23.631Z,7.83
2017-07-01T02:44:50.622Z,8.27
2017-07-01T02:47:30.298Z,7.40
2017-07-01T02:49:59.994Z,9.37
2017-07-01T02:52:38.934Z,8.10
2017-07-01T02:55:24.368Z,8.80
2017-07-01T02:57:51.338Z,7.80
2017-07-01T03:00:18.314Z,8.33
2017-07-01T03:02:45.320Z,8.80
2017-07-01T03:05:13.075Z,7.63
2017-07-01T03:07:40.058Z,8.70
2017-07-01T03:10:07.794Z,7.80
2017-07-01T03:12:34.806Z,8.23
2017-07-01T03:15:01.771Z,9.27
2017-07-01T03:17:33.458Z,8.60
2017-07-01T03:20:00.479Z,9.40
2017-07-01T03:22:27.439Z,8.07
2017-07-01T03:24:54.406Z,11.27
2017-07-01T03:27:22.172Z,8.50
2017-07-01T03:29:49.898Z,9.20
2017-07-01T03:32:16.909Z,9.20
2017-07-01T03:34:43.879Z,9.60
2017-07-01T03:40:39.655Z,9.30
2017-07-01T03:43:27.379Z,9.57
2017-07-01T03:46:06.122Z,9.03
2017-07-01T03:48:55.546Z,9.87
2017-07-01T03:51:22.530Z,10.90
2017-07-01T03:53:50.311Z,10.90
2017-07-01T03:56:18.063Z,10.17
2017-07-01T03:58:45.764Z,9.80
2017-07-01T04:01:12.767Z,11.53
2017-07-01T04:03:40.510Z,10.17
2017-07-01T04:06:07.575Z,9.33
2017-07-01T04:08:35.319Z,11.80
2017-07-01T04:11:02.329Z,9.63
2017-07-01T04:13:31.247Z,10.33
2017-07-01T04:15:58.272Z,11.20
2017-07-01T04:18:33.851Z,10.40
2017-07-01T04:21:00.819Z,9.20
2017-07-01T04:23:28.582Z,11.13
2017-07-01T04:25:56.332Z,10.17
2017-07-01T04:28:23.380Z,10.07
2017-07-01T04:30:50.370Z,9.33
2017-07-01T04:33:17.334Z,9.60
2017-07-01T04:35:44.334Z,8.30
2017-07-01T04:38:28.703Z,8.30
2017-07-01T04:40:55.702Z,7.80
2017-07-01T04:43:40.276Z,7.87
2017-07-01T04:46:09.135Z,7.70
2017-07-01T04:48:58.499Z,7.63
2017-07-01T04:51:34.378Z,7.47
2017-07-01T04:54:20.851Z,6.73
2017-07-01T04:57:07.538Z,6.30
2017-07-01T04:59:38.080Z,6.00
2017-07-01T05:02:05.066Z,6.43
2017-07-01T05:04:33.662Z,5.70
2017-07-01T05:07:01.667Z,6.23
2017-07-01T05:09:35.178Z,5.23
2017-07-01T05:12:02.956Z,5.03
2017-07-01T05:14:40.475Z,5.57
2017-07-01T05:17:07.439Z,5.33
2017-07-01T05:19:34.439Z,4.70
2017-07-01T05:22:01.415Z,4.73
2017-07-01T05:24:49.079Z,5.17
2017-07-01T05:27:16.047Z,4.17
2017-07-01T05:29:43.072Z,4.30
2017-07-01T05:32:10.818Z,3.80
2017-07-01T05:34:37.803Z,3.57
2017-07-01T05:37:04.826Z,5.60
2017-07-01T05:39:31.814Z,4.10
2017-07-01T05:42:21.547Z,2.10
2017-07-01T05:44:53.283Z,0.70
2017-07-01T05:47:21.127Z,1.27
2017-07-01T05:49:48.887Z,1.20
2017-07-01T05:52:15.851Z,1.10
2017-07-01T05:54:43.624Z,1.33
2017-07-01T05:57:10.623Z,0.90
2017-07-01T05:59:40.150Z,0.80
2017-07-01T06:02:22.781Z,2.07
2017-07-01T06:04:49.755Z,1.30
2017-07-01T06:07:16.749Z,0.50
2017-07-01T06:10:10.494Z,0.90
2017-07-01T06:12:41.903Z,0.90
2017-07-01T06:18:28.212Z,1.07
2017-07-01T06:21:00.605Z,1.13
2017-07-01T06:23:38.209Z,1.23
2017-07-01T06:26:13.045Z,1.10
2017-07-01T06:28:51.903Z,1.20
2017-07-01T06:31:25.122Z,1.37
2017-07-01T06:33:52.119Z,2.53
2017-07-01T06:38:53.811Z,2.00
2017-07-01T06:41:34.519Z,1.50
2017-07-01T06:44:25.227Z,2.70
2017-07-01T06:47:06.002Z,2.83
2017-07-01T06:49:41.711Z,3.40
2017-07-01T06:52:12.922Z,2.53
2017-07-01T06:54:39.907Z,1.77
2017-07-01T06:57:06.891Z,2.83
2017-07-01T06:59:33.842Z,7.23
2017-07-01T07:02:00.823Z,7.73
2017-07-01T07:04:27.778Z,6.90
2017-07-01T07:06:54.770Z,7.60
2017-07-01T07:09:21.727Z,7.73
2017-07-01T07:11:48.694Z,7.50
2017-07-01T07:14:15.654Z,7.73
2017-07-01T07:16:42.646Z,5.90
2017-07-01T07:19:09.606Z,4.57
2017-07-01T07:21:36.567Z,5.90
2017-07-01T07:24:03.580Z,6.13
2017-07-01T07:26:30.542Z,5.30
2017-07-01T07:28:57.543Z,4.93
2017-07-01T07:31:25.280Z,6.60
2017-07-01T07:33:52.238Z,3.40
2017-07-01T07:36:20.043Z,2.97
2017-07-01T07:38:47.025Z,8.20
2017-07-01T07:41:13.983Z,4.60
2017-07-01T07:43:40.983Z,5.77
2017-07-01T07:46:07.932Z,4.80
2017-07-01T07:48:34.883Z,6.50
2017-07-01T07:51:01.871Z,4.10
2017-07-01T07:53:28.827Z,3.87
2017-07-01T07:55:56.582Z,3.63
2017-07-01T07:58:23.537Z,2.50
2017-07-01T08:00:51.275Z,2.67
2017-07-01T08:03:18.240Z,2.00
2017-07-01T08:05:45.983Z,2.50
2017-07-01T08:08:12.931Z,2.93
2017-07-01T08:10:39.922Z,3.00
2017-07-01T08:13:06.918Z,5.13
2017-07-01T08:15:33.867Z,4.00
2017-07-01T08:18:00.839Z,3.77
2017-07-01T08:20:27.813Z,5.00
2017-07-01T08:22:54.817Z,5.50
2017-07-01T08:25:21.779Z,5.87
2017-07-01T08:27:49.497Z,6.03
2017-07-01T08:30:16.494Z,5.73
2017-07-01T08:32:43.450Z,4.30
2017-07-01T08:35:10.414Z,4.60
2017-07-01T08:37:37.363Z,4.60
2017-07-01T08:40:04.350Z,5.93
2017-07-01T09:01:45.831Z,5.63
2017-07-01T09:48:32.577Z,8.80
2017-07-01T09:51:00.314Z,11.33
2017-07-01T09:53:27.312Z,10.83
2017-07-01T09:55:54.271Z,10.90
2017-07-01T09:58:21.229Z,10.77
2017-07-01T10:00:48.216Z,10.63
2017-07-01T10:03:15.938Z,8.80
2017-07-01T10:05:42.944Z,8.90
2017-07-01T10:08:09.907Z,8.53
2017-07-01T10:10:36.923Z,8.60
2017-07-01T10:13:03.902Z,7.80
2017-07-01T10:15:30.859Z,9.57
2017-07-01T10:17:57.840Z,7.50
2017-07-01T10:20:25.559Z,6.67
2017-07-01T10:22:52.559Z,6.03
2017-07-01T10:25:20.362Z,5.93
2017-07-01T10:27:47.325Z,7.20
2017-07-01T10:30:14.308Z,6.90
2017-07-01T10:32:42.035Z,6.53
2017-07-01T10:35:09.023Z,6.60
2017-07-01T10:37:35.980Z,6.40
2017-07-01T10:40:03.040Z,6.83
2017-07-01T10:42:30.019Z,6.33
2017-07-01T10:44:56.989Z,6.60
2017-07-01T10:47:23.975Z,5.60
2017-07-01T10:49:50.927Z,5.93
2017-07-01T10:52:18.872Z,5.90
2017-07-01T10:54:45.841Z,6.77
2017-07-01T10:57:12.796Z,7.03
2017-07-01T10:59:39.788Z,5.53
2017-07-01T11:02:06.752Z,7.43
2017-07-01T11:04:33.731Z,6.60
2017-07-01T11:07:01.467Z,7.90
2017-07-01T11:09:28.459Z,8.97
2017-07-01T11:11:55.435Z,9.07
2017-07-01T11:14:22.391Z,9.27
2017-07-01T11:16:50.540Z,8.17
2017-07-01T11:19:17.500Z,8.00
2017-07-01T11:21:44.475Z,6.53
2017-07-01T11:24:11.452Z,5.80
2017-07-01T11:26:39.207Z,6.83
2017-07-01T11:29:06.948Z,5.63
2017-07-01T11:31:33.908Z,5.40
2017-07-01T11:34:00.913Z,5.60
2017-07-01T11:36:27.871Z,5.87
2017-07-01T11:38:54.861Z,6.63
2017-07-01T11:41:21.820Z,5.60
2017-07-01T11:43:49.591Z,5.63
2017-07-01T11:46:17.318Z,5.60
2017-07-01T11:48:44.274Z,5.80
2017-07-01T11:51:11.274Z,6.43
2017-07-01T11:53:38.244Z,5.10
2017-07-01T11:56:05.999Z,5.90
2017-07-01T11:58:33.802Z,5.40
2017-07-01T12:01:00.886Z,5.33
2017-07-01T12:03:27.890Z,5.23
2017-07-01T12:05:54.926Z,5.33
2017-07-01T12:08:21.947Z,4.63
2017-07-01T12:10:50.684Z,5.33
2017-07-01T12:13:17.668Z,5.70
2017-07-01T12:15:44.675Z,7.60
2017-07-01T12:18:11.652Z,6.60
2017-07-01T12:20:38.660Z,6.40
2017-07-01T12:23:05.646Z,4.80
2017-07-01T12:25:32.640Z,5.77
2017-07-01T12:27:59.597Z,5.17
2017-07-01T12:30:26.609Z,5.23
2017-07-01T12:32:53.607Z,4.20
2017-07-01T12:35:20.628Z,4.30
2017-07-01T12:37:47.627Z,4.80
2017-07-01T12:40:14.583Z,4.30
2017-07-01T12:42:42.328Z,4.60
2017-07-01T12:45:09.280Z,4.60
2017-07-01T12:47:36.271Z,3.97
2017-07-01T12:50:03.231Z,4.90
2017-07-01T12:52:30.998Z,3.97
2017-07-01T12:54:57.954Z,4.23
2017-07-01T12:57:24.916Z,4.47
2017-07-01T12:59:51.912Z,4.80
2017-07-01T13:02:19.628Z,4.33
2017-07-01T13:04:46.627Z,4.93
2017-07-01T13:07:13.591Z,3.97
2017-07-01T13:09:40.551Z,4.07
2017-07-01T13:12:07.563Z,4.80
2017-07-01T13:14:34.532Z,3.37
2017-07-01T13:17:01.533Z,4.03
2017-07-01T13:19:29.251Z,3.47
2017-07-01T13:21:56.216Z,4.07
2017-07-01T13:24:23.231Z,4.33
2017-07-01T13:26:50.194Z,4.07
2017-07-01T13:29:17.213Z,4.50
2017-07-01T13:31:44.172Z,4.23
2017-07-01T13:34:11.172Z,4.27
2017-07-01T13:36:38.136Z,3.87
2017-07-01T13:39:06.124Z,4.70
2017-07-01T13:41:33.908Z,4.50
2017-07-01T13:44:00.900Z,4.00
2017-07-01T13:46:27.893Z,3.73
2017-07-01T13:48:55.796Z,4.10
2017-07-01T13:51:22.748Z,3.70
2017-07-01T13:53:49.777Z,3.23
2017-07-01T13:56:17.651Z,3.83
2017-07-01T13:58:44.648Z,4.77
2017-07-01T14:01:12.380Z,4.60
2017-07-01T14:03:39.989Z,4.10
2017-07-01T14:06:06.943Z,3.53
2017-07-01T14:08:33.912Z,4.20
2017-07-01T14:11:02.860Z,3.87
2017-07-01T14:13:33.764Z,3.60
2017-07-01T14:16:00.743Z,4.27
2017-07-01T14:18:28.566Z,4.07
2017-07-01T14:20:55.960Z,4.80
2017-07-01T14:23:22.936Z,3.63
2017-07-01T14:25:49.883Z,3.60
2017-07-01T14:28:16.868Z,3.90
2017-07-01T14:30:43.824Z,3.40
2017-07-01T14:33:10.800Z,4.60
2017-07-01T14:35:37.798Z,3.67
2017-07-01T14:38:04.792Z,4.53
2017-07-01T14:40:31.771Z,4.17
2017-07-01T14:42:58.733Z,2.97
2017-07-01T14:45:25.748Z,4.50
2017-07-01T14:47:52.708Z,3.63
2017-07-01T14:50:19.683Z,4.10
2017-07-01T14:52:46.644Z,3.50
2017-07-01T14:55:14.408Z,4.23
2017-07-01T14:57:42.132Z,4.43
2017-07-01T15:00:09.147Z,3.00
2017-07-01T15:02:36.139Z,4.13
2017-07-01T15:05:03.108Z,4.27
2017-07-01T15:07:31.045Z,3.70
2017-07-01T15:10:00.029Z,3.90
2017-07-01T15:12:27.996Z,3.40
2017-07-01T15:14:54.997Z,3.60
2017-07-01T15:17:22.009Z,3.67
2017-07-01T15:19:48.975Z,3.30
2017-07-01T15:22:16.724Z,3.80
2017-07-01T15:24:43.683Z,3.07
2017-07-01T15:27:11.491Z,3.83
2017-07-01T15:29:38.443Z,3.60
2017-07-01T15:32:06.461Z,3.23
2017-07-01T15:34:34.193Z,3.20
2017-07-01T15:37:01.156Z,3.83
2017-07-01T15:39:30.147Z,3.80
2017-07-01T15:41:58.084Z,3.90
2017-07-01T15:44:25.089Z,4.80
2017-07-01T15:46:52.048Z,4.00
2017-07-01T15:49:19.055Z,4.03
2017-07-01T15:51:46.016Z,3.90
2017-07-01T15:54:13.783Z,3.80
2017-07-01T15:56:41.537Z,3.50
2017-07-01T15:59:08.518Z,5.03
2017-07-01T16:01:47.251Z,3.90
2017-07-01T16:04:14.236Z,3.80
2017-07-01T16:06:41.195Z,3.63
2017-07-01T16:09:08.955Z,3.97
2017-07-01T16:11:35.913Z,3.67
2017-07-01T16:14:03.636Z,4.13
2017-07-01T16:16:30.615Z,4.73
2017-07-01T16:18:58.344Z,4.30
2017-07-01T16:21:25.344Z,4.00
2017-07-01T16:23:52.299Z,5.47
2017-07-01T16:26:19.275Z,4.70
2017-07-01T16:28:46.253Z,5.07
2017-07-01T16:31:13.207Z,4.63
2017-07-01T16:33:40.183Z,3.80
2017-07-01T16:36:07.913Z,4.63
2017-07-01T16:38:34.906Z,4.50
2017-07-01T16:41:01.867Z,4.13
2017-07-01T16:43:28.884Z,4.40
2017-07-01T16:45:58.972Z,4.40
2017-07-01T16:48:26.905Z,4.30
2017-07-01T16:50:53.902Z,4.60
2017-07-01T16:53:20.870Z,5.13
2017-07-01T16:55:47.867Z,3.20
2017-07-01T16:58:14.819Z,4.00
2017-07-01T17:00:42.743Z,3.90
2017-07-01T17:03:09.711Z,3.50
2017-07-01T17:05:36.672Z,4.17
2017-07-01T17:08:04.424Z,3.90
2017-07-01T17:10:31.386Z,3.67
2017-07-01T17:12:59.156Z,3.50
2017-07-01T17:15:26.115Z,3.63
2017-07-01T17:17:53.128Z,3.40
2017-07-01T17:20:20.944Z,4.30
2017-07-01T17:22:48.709Z,5.00
2017-07-01T17:25:15.673Z,3.93
2017-07-01T17:27:42.629Z,4.23
2017-07-01T17:30:10.663Z,4.20
2017-07-01T17:32:38.405Z,4.00
2017-07-01T17:35:07.416Z,3.97
2017-07-01T17:37:34.372Z,3.80
2017-07-01T17:40:02.308Z,3.60
2017-07-01T17:42:29.315Z,4.27
2017-07-01T17:44:56.284Z,3.70
2017-07-01T17:47:23.289Z,4.93
2017-07-01T17:49:51.106Z,4.10
2017-07-01T17:52:18.916Z,3.90
2017-07-01T17:54:45.876Z,3.87
2017-07-01T17:57:12.884Z,5.07
2017-07-01T17:59:40.616Z,4.47
2017-07-01T18:02:07.577Z,4.63
2017-07-01T18:04:35.352Z,4.63
2017-07-01T18:07:03.093Z,4.97
2017-07-01T18:09:30.088Z,4.40
2017-07-01T18:11:57.062Z,5.00
2017-07-01T18:14:24.028Z,4.07
2017-07-01T18:16:51.021Z,4.70
2017-07-01T18:19:17.992Z,4.70
2017-07-01T18:21:46.784Z,5.73
2017-07-01T18:24:14.519Z,4.67
2017-07-01T18:26:41.475Z,4.43
2017-07-01T18:29:08.481Z,4.80
2017-07-01T18:31:35.485Z,5.43
2017-07-01T18:34:04.172Z,5.27
2017-07-01T18:36:31.899Z,5.47
2017-07-01T18:38:58.858Z,5.00
2017-07-01T18:41:25.868Z,5.77
2017-07-01T18:43:53.749Z,5.43
2017-07-01T18:46:21.015Z,5.50
2017-07-01T18:48:47.984Z,5.13
2017-07-01T18:51:15.733Z,6.10
2017-07-01T18:53:42.755Z,5.70
2017-07-01T18:56:10.660Z,5.30
2017-07-01T18:58:37.657Z,5.47
2017-07-01T19:01:04.632Z,5.23
2017-07-01T19:03:33.689Z,6.10
2017-07-01T19:06:00.701Z,6.70
2017-07-01T19:08:27.673Z,6.10
2017-07-01T19:10:55.595Z,6.20
2017-07-01T19:13:23.348Z,6.17
2017-07-01T19:15:52.390Z,5.70
2017-07-01T19:18:19.433Z,5.47
2017-07-01T19:20:46.444Z,6.73
2017-07-01T19:23:13.466Z,5.67
2017-07-01T19:25:40.471Z,5.40
2017-07-01T19:28:07.431Z,5.10
2017-07-01T19:30:34.450Z,5.03
2017-07-01T19:33:02.171Z,4.90
2017-07-01T19:35:29.169Z,7.30
2017-07-01T19:37:57.076Z,4.80
2017-07-01T19:40:24.040Z,5.70
2017-07-01T19:42:51.035Z,5.50
2017-07-01T19:45:18.017Z,5.03
2017-07-01T19:47:45.045Z,4.77
2017-07-01T19:50:12.007Z,5.40
2017-07-01T19:52:38.977Z,4.70
2017-07-01T19:55:05.998Z,4.00
2017-07-01T19:57:33.974Z,4.83
2017-07-01T20:00:02.914Z,4.47
2017-07-01T20:02:31.819Z,5.27
2017-07-01T20:04:59.740Z,4.93
2017-07-01T20:07:26.718Z,4.90
2017-07-01T20:09:54.705Z,5.33
2017-07-01T20:12:21.691Z,5.53
2017-07-01T20:14:48.653Z,5.77
2017-07-01T20:17:16.565Z,5.63
2017-07-01T20:19:44.564Z,6.07
2017-07-01T20:22:11.574Z,6.37
2017-07-01T20:24:38.555Z,8.00
2017-07-01T20:27:05.525Z,5.90
2017-07-01T20:29:32.548Z,6.30
2017-07-01T20:32:00.509Z,6.53
2017-07-01T20:34:27.495Z,6.10
2017-07-01T20:36:54.463Z,8.13
2017-07-01T20:39:22.476Z,6.40
2017-07-01T20:41:51.217Z,6.40
2017-07-01T20:44:19.202Z,5.47
2017-07-01T20:46:46.215Z,5.77
2017-07-01T20:49:14.121Z,5.70
2017-07-01T20:51:41.107Z,6.43
2017-07-01T20:54:09.019Z,6.80
2017-07-01T20:56:36.025Z,6.90
2017-07-01T20:59:04.937Z,7.13
2017-07-01T21:01:32.966Z,8.50
2017-07-01T21:03:59.931Z,7.20
2017-07-01T21:06:26.937Z,8.37
2017-07-01T21:08:53.933Z,8.10
2017-07-01T21:11:20.916Z,9.60
2017-07-01T21:13:48.648Z,8.03
2017-07-01T21:16:15.624Z,8.33
2017-07-01T21:18:43.351Z,9.33
2017-07-01T21:21:10.385Z,9.90
2017-07-01T21:23:37.346Z,8.80
2017-07-01T21:26:04.351Z,9.90
2017-07-01T21:28:32.079Z,9.40
2017-07-01T21:30:59.076Z,8.97
2017-07-01T21:33:27.195Z,9.83
2017-07-01T21:35:54.160Z,9.67
2017-07-01T21:38:22.117Z,10.63
2017-07-01T21:40:50.107Z,10.50
2017-07-01T21:43:18.066Z,11.13
2017-07-01T21:45:45.072Z,9.70
2017-07-01T21:48:12.035Z,10.27
2017-07-01T21:50:39.044Z,10.20
2017-07-01T21:53:06.063Z,10.57
2017-07-01T21:55:33.816Z,10.07
2017-07-01T21:58:00.783Z,11.93
2017-07-01T22:00:27.765Z,9.80
2017-07-01T22:02:54.729Z,10.40
2017-07-01T22:05:21.743Z,10.10
2017-07-01T22:07:48.758Z,11.07
2017-07-01T22:10:16.488Z,10.87
2017-07-01T22:12:43.515Z,10.50
2017-07-01T22:15:12.457Z,11.37
2017-07-01T22:17:42.161Z,10.43
2017-07-01T22:20:10.131Z,11.03
2017-07-01T22:22:37.140Z,9.37
2017-07-01T22:25:04.104Z,12.23
2017-07-01T22:27:31.081Z,10.50
2017-07-01T22:29:59.755Z,9.90
2017-07-01T22:32:26.716Z,10.27
2017-07-01T22:34:54.488Z,10.83
2017-07-01T22:37:21.488Z,9.10
2017-07-01T22:39:48.498Z,9.60
2017-07-01T22:42:16.542Z,10.50
2017-07-01T22:44:43.513Z,10.10
2017-07-01T22:47:10.516Z,10.13
2017-07-01T22:49:37.488Z,9.90
2017-07-01T22:52:04.493Z,9.97
2017-07-01T22:54:32.219Z,9.50
2017-07-01T22:56:59.183Z,11.00
2017-07-01T22:59:26.188Z,9.70
2017-07-01T23:01:53.153Z,10.77
2017-07-01T23:04:20.123Z,9.60
2017-07-01T23:06:47.128Z,11.30
2017-07-01T23:09:15.012Z,11.13
2017-07-01T23:11:42.028Z,9.80
2017-07-01T23:14:09.025Z,10.07
2017-07-01T23:16:36.012Z,10.70
2017-07-01T23:19:03.061Z,9.70
2017-07-01T23:21:30.156Z,10.10
2017-07-01T23:23:57.939Z,10.40
2017-07-01T23:26:24.952Z,8.47
2017-07-01T23:28:51.925Z,9.87
2017-07-01T23:31:19.926Z,8.60
2017-07-01T23:33:46.888Z,9.83
2017-07-01T23:36:13.855Z,8.50
2017-07-01T23:38:40.831Z,8.77
2017-07-01T23:41:07.786Z,9.33
2017-07-01T23:43:34.789Z,9.13
2017-07-01T23:46:01.797Z,8.93
2017-07-01T23:48:29.580Z,10.10
2017-07-01T23:50:56.547Z,9.17
2017-07-01T23:53:23.505Z,9.50
2017-07-01T23:55:50.498Z,7.83
2017-07-01T23:58:18.228Z,9.00
